sensor_id;sensor_type;location;lat;lon;timestamp;P1;durP1;ratioP1;P2;durP2;ratioP2
58252;SDS011;44050;48.884;8.762;2023-05-07T12:34:50;0.68;;;0.68;;
58252;SDS011;44050;48.884;8.762;2023-05-07T12:37:33;0.70;;;0.70;;
58252;SDS011;44050;48.884;8.762;2023-05-07T12:40:07;4.03;;;0.80;;
58252;SDS011;44050;48.884;8.762;2023-05-07T12:42:39;2.38;;;1.50;;
58252;SDS011;44050;48.884;8.762;2023-05-07T12:45:15;1.52;;;0.98;;
58252;SDS011;44050;48.884;8.762;2023-05-07T12:47:47;1.17;;;1.08;;
58252;SDS011;44050;48.884;8.762;2023-05-07T12:50:22;0.60;;;0.60;;
58252;SDS011;44050;48.884;8.762;2023-05-07T12:52:53;0.45;;;0.45;;
58252;SDS011;44050;48.884;8.762;2023-05-07T12:55:25;1.10;;;1.00;;
58252;SDS011;44050;48.884;8.762;2023-05-07T12:58:00;0.60;;;0.60;;
58252;SDS011;44050;48.884;8.762;2023-05-07T13:00:36;1.33;;;0.75;;
58252;SDS011;44050;48.884;8.762;2023-05-07T13:03:07;0.60;;;0.60;;
58252;SDS011;44050;48.884;8.762;2023-05-07T13:05:43;3.38;;;1.08;;
58252;SDS011;44050;48.884;8.762;2023-05-07T13:08:23;0.60;;;0.60;;
58252;SDS011;44050;48.884;8.762;2023-05-07T13:10:54;0.57;;;0.43;;
58252;SDS011;44050;48.884;8.762;2023-05-07T13:13:26;0.52;;;0.52;;
58252;SDS011;44050;48.884;8.762;2023-05-07T13:16:02;0.30;;;0.30;;
58252;SDS011;44050;48.884;8.762;2023-05-07T13:18:37;0.30;;;0.30;;
58252;SDS011;44050;48.884;8.762;2023-05-07T13:21:09;0.70;;;0.70;;
58252;SDS011;44050;48.884;8.762;2023-05-07T13:44:55;2.47;;;1.30;;
58252;SDS011;44050;48.884;8.762;2023-05-07T13:47:28;1.00;;;1.00;;
58252;SDS011;44050;48.884;8.762;2023-05-07T13:50:00;5.32;;;2.15;;
58252;SDS011;44050;48.884;8.762;2023-05-07T13:52:44;1.40;;;0.73;;
58252;SDS011;44050;48.884;8.762;2023-05-07T13:55:32;0.70;;;0.70;;
58252;SDS011;44050;48.884;8.762;2023-05-07T13:58:11;1.25;;;0.90;;
58252;SDS011;44050;48.884;8.762;2023-05-07T14:00:45;1.60;;;0.50;;
58252;SDS011;44050;48.884;8.762;2023-05-07T14:03:20;1.08;;;0.70;;
58252;SDS011;44050;48.884;8.762;2023-05-07T14:06:07;1.35;;;0.80;;
58252;SDS011;44050;48.884;8.762;2023-05-07T14:08:38;0.40;;;0.40;;
58252;SDS011;44050;48.884;8.762;2023-05-07T14:11:10;0.50;;;0.50;;
58252;SDS011;44050;48.884;8.762;2023-05-07T14:13:41;0.57;;;0.57;;
58252;SDS011;44050;48.884;8.762;2023-05-07T14:16:12;0.75;;;0.50;;
58252;SDS011;44050;48.884;8.762;2023-05-07T14:18:52;0.25;;;0.25;;
58252;SDS011;44050;48.884;8.762;2023-05-07T14:21:24;0.73;;;0.40;;
58252;SDS011;44050;48.884;8.762;2023-05-07T14:23:56;0.50;;;0.50;;
58252;SDS011;44050;48.884;8.762;2023-05-07T14:26:30;0.40;;;0.40;;
58252;SDS011;44050;48.884;8.762;2023-05-07T14:29:02;0.80;;;0.63;;
58252;SDS011;44050;48.884;8.762;2023-05-07T14:31:34;0.43;;;0.40;;
58252;SDS011;44050;48.884;8.762;2023-05-07T14:34:05;2.90;;;0.68;;
58252;SDS011;44050;48.884;8.762;2023-05-07T14:36:38;0.73;;;0.73;;
58252;SDS011;44050;48.884;8.762;2023-05-07T14:39:09;0.80;;;0.57;;
58252;SDS011;44050;48.884;8.762;2023-05-07T14:41:44;0.43;;;0.43;;
58252;SDS011;44050;48.884;8.762;2023-05-07T14:44:15;1.92;;;1.00;;
58252;SDS011;44050;48.884;8.762;2023-05-07T14:46:56;0.90;;;0.57;;
58252;SDS011;44050;48.884;8.762;2023-05-07T14:49:27;0.98;;;0.88;;
58252;SDS011;44050;48.884;8.762;2023-05-07T14:51:58;0.65;;;0.65;;
58252;SDS011;44050;48.884;8.762;2023-05-07T14:54:33;2.03;;;0.93;;
58252;SDS011;44050;48.884;8.762;2023-05-07T14:57:09;0.75;;;0.75;;
58252;SDS011;44050;48.884;8.762;2023-05-07T14:59:44;0.50;;;0.50;;
58252;SDS011;44050;48.884;8.762;2023-05-07T15:02:21;0.85;;;0.82;;
58252;SDS011;44050;48.884;8.762;2023-05-07T15:04:53;0.80;;;0.65;;
58252;SDS011;44050;48.884;8.762;2023-05-07T15:07:27;0.43;;;0.43;;
58252;SDS011;44050;48.884;8.762;2023-05-07T15:09:59;2.15;;;0.90;;
58252;SDS011;44050;48.884;8.762;2023-05-07T15:12:34;0.73;;;0.73;;
58252;SDS011;44050;48.884;8.762;2023-05-07T15:15:05;0.60;;;0.60;;
58252;SDS011;44050;48.884;8.762;2023-05-07T15:17:40;1.65;;;0.55;;
58252;SDS011;44050;48.884;8.762;2023-05-07T15:20:14;1.73;;;0.90;;
58252;SDS011;44050;48.884;8.762;2023-05-07T15:22:45;1.38;;;0.60;;
58252;SDS011;44050;48.884;8.762;2023-05-07T15:25:16;1.35;;;1.17;;
58252;SDS011;44050;48.884;8.762;2023-05-07T15:27:47;0.65;;;0.65;;
58252;SDS011;44050;48.884;8.762;2023-05-07T15:30:18;0.93;;;0.80;;
58252;SDS011;44050;48.884;8.762;2023-05-07T15:32:50;0.63;;;0.63;;
58252;SDS011;44050;48.884;8.762;2023-05-07T15:35:21;2.75;;;0.68;;
58252;SDS011;44050;48.884;8.762;2023-05-07T15:37:52;0.65;;;0.65;;
58252;SDS011;44050;48.884;8.762;2023-05-07T15:40:24;0.43;;;0.35;;
58252;SDS011;44050;48.884;8.762;2023-05-07T15:42:55;1.83;;;0.98;;
58252;SDS011;44050;48.884;8.762;2023-05-07T15:45:26;1.50;;;0.95;;
58252;SDS011;44050;48.884;8.762;2023-05-07T15:47:57;0.85;;;0.85;;
58252;SDS011;44050;48.884;8.762;2023-05-07T15:50:28;0.65;;;0.52;;
58252;SDS011;44050;48.884;8.762;2023-05-07T15:52:59;0.68;;;0.68;;
58252;SDS011;44050;48.884;8.762;2023-05-07T15:55:30;0.43;;;0.43;;
58252;SDS011;44050;48.884;8.762;2023-05-07T15:58:01;2.42;;;0.90;;
58252;SDS011;44050;48.884;8.762;2023-05-07T16:00:34;0.30;;;0.30;;
58252;SDS011;44050;48.884;8.762;2023-05-07T16:03:05;1.55;;;1.00;;
58252;SDS011;44050;48.884;8.762;2023-05-07T16:05:36;0.80;;;0.40;;
58252;SDS011;44050;48.884;8.762;2023-05-07T16:08:07;2.15;;;0.70;;
58252;SDS011;44050;48.884;8.762;2023-05-07T16:10:38;1.38;;;0.43;;
58252;SDS011;44050;48.884;8.762;2023-05-07T16:13:09;1.98;;;1.13;;
58252;SDS011;44050;48.884;8.762;2023-05-07T16:15:41;2.88;;;0.85;;
58252;SDS011;44050;48.884;8.762;2023-05-07T16:18:12;0.50;;;0.50;;
58252;SDS011;44050;48.884;8.762;2023-05-07T16:20:45;0.90;;;0.68;;
58252;SDS011;44050;48.884;8.762;2023-05-07T16:23:16;0.65;;;0.65;;
58252;SDS011;44050;48.884;8.762;2023-05-07T16:25:48;0.90;;;0.50;;
58252;SDS011;44050;48.884;8.762;2023-05-07T16:28:22;0.47;;;0.47;;
58252;SDS011;44050;48.884;8.762;2023-05-07T16:30:52;0.47;;;0.47;;
58252;SDS011;44050;48.884;8.762;2023-05-07T16:33:23;0.43;;;0.43;;
58252;SDS011;44050;48.884;8.762;2023-05-07T16:35:54;0.32;;;0.32;;
58252;SDS011;44050;48.884;8.762;2023-05-07T16:38:25;0.40;;;0.40;;
58252;SDS011;44050;48.884;8.762;2023-05-07T16:40:58;3.42;;;0.68;;
58252;SDS011;44050;48.884;8.762;2023-05-07T16:43:28;0.80;;;0.80;;
58252;SDS011;44050;48.884;8.762;2023-05-07T16:46:00;0.98;;;0.65;;
58252;SDS011;44050;48.884;8.762;2023-05-07T16:48:31;0.60;;;0.60;;
58252;SDS011;44050;48.884;8.762;2023-05-07T16:51:02;0.30;;;0.30;;
58252;SDS011;44050;48.884;8.762;2023-05-07T16:53:33;0.63;;;0.60;;
58252;SDS011;44050;48.884;8.762;2023-05-07T16:56:05;0.47;;;0.47;;
58252;SDS011;44050;48.884;8.762;2023-05-07T16:58:36;1.13;;;0.95;;
58252;SDS011;44050;48.884;8.762;2023-05-07T17:01:07;0.80;;;0.80;;
58252;SDS011;44050;48.884;8.762;2023-05-07T17:03:38;0.60;;;0.60;;
58252;SDS011;44050;48.884;8.762;2023-05-07T17:06:08;1.20;;;0.98;;
58252;SDS011;44050;48.884;8.762;2023-05-07T17:08:44;0.30;;;0.30;;
58252;SDS011;44050;48.884;8.762;2023-05-07T17:11:15;1.55;;;0.90;;
58252;SDS011;44050;48.884;8.762;2023-05-07T17:13:46;1.40;;;1.13;;
58252;SDS011;44050;48.884;8.762;2023-05-07T17:16:17;0.75;;;0.75;;
58252;SDS011;44050;48.884;8.762;2023-05-07T17:18:48;5.10;;;1.20;;
58252;SDS011;44050;48.884;8.762;2023-05-07T17:21:18;3.60;;;1.60;;
58252;SDS011;44050;48.884;8.762;2023-05-07T17:23:50;5.18;;;1.65;;
58252;SDS011;44050;48.884;8.762;2023-05-07T17:26:20;0.60;;;0.57;;
58252;SDS011;44050;48.884;8.762;2023-05-07T17:31:22;0.97;;;0.97;;
58252;SDS011;44050;48.884;8.762;2023-05-07T17:33:53;1.35;;;0.70;;
58252;SDS011;44050;48.884;8.762;2023-05-07T17:36:24;1.80;;;1.40;;
58252;SDS011;44050;48.884;8.762;2023-05-07T17:38:54;3.63;;;1.40;;
58252;SDS011;44050;48.884;8.762;2023-05-07T17:41:25;1.70;;;1.40;;
58252;SDS011;44050;48.884;8.762;2023-05-07T17:46:27;2.38;;;1.08;;
58252;SDS011;44050;48.884;8.762;2023-05-07T17:48:57;1.13;;;1.05;;
58252;SDS011;44050;48.884;8.762;2023-05-07T17:53:59;0.60;;;0.60;;
58252;SDS011;44050;48.884;8.762;2023-05-07T17:56:36;1.48;;;1.40;;
58252;SDS011;44050;48.884;8.762;2023-05-07T17:59:07;1.33;;;1.23;;
58252;SDS011;44050;48.884;8.762;2023-05-07T18:04:08;1.75;;;0.57;;
58252;SDS011;44050;48.884;8.762;2023-05-07T18:06:39;0.93;;;0.93;;
58252;SDS011;44050;48.884;8.762;2023-05-07T18:09:19;5.15;;;1.63;;
58252;SDS011;44050;48.884;8.762;2023-05-07T18:11:49;1.52;;;0.60;;
58252;SDS011;44050;48.884;8.762;2023-05-07T18:16:55;1.02;;;0.43;;
58252;SDS011;44050;48.884;8.762;2023-05-07T18:21:56;0.55;;;0.55;;
58252;SDS011;44050;48.884;8.762;2023-05-07T18:24:27;0.77;;;0.77;;
58252;SDS011;44050;48.884;8.762;2023-05-07T18:29:49;0.60;;;0.55;;
58252;SDS011;44050;48.884;8.762;2023-05-07T18:34:51;0.80;;;0.80;;
58252;SDS011;44050;48.884;8.762;2023-05-07T18:39:52;0.60;;;0.60;;
58252;SDS011;44050;48.884;8.762;2023-05-07T18:44:53;0.70;;;0.70;;
58252;SDS011;44050;48.884;8.762;2023-05-07T18:49:57;0.50;;;0.50;;
58252;SDS011;44050;48.884;8.762;2023-05-07T18:52:35;1.13;;;0.80;;
58252;SDS011;44050;48.884;8.762;2023-05-07T18:55:06;1.65;;;0.90;;
58252;SDS011;44050;48.884;8.762;2023-05-07T18:57:39;1.00;;;0.70;;
58252;SDS011;44050;48.884;8.762;2023-05-07T19:00:12;0.80;;;0.80;;
58252;SDS011;44050;48.884;8.762;2023-05-07T19:05:13;0.80;;;0.80;;
58252;SDS011;44050;48.884;8.762;2023-05-07T19:10:16;0.50;;;0.50;;
58252;SDS011;44050;48.884;8.762;2023-05-07T19:15:20;1.83;;;0.73;;
58252;SDS011;44050;48.884;8.762;2023-05-07T19:17:52;0.88;;;0.88;;
58252;SDS011;44050;48.884;8.762;2023-05-07T19:22:57;1.00;;;0.98;;
58252;SDS011;44050;48.884;8.762;2023-05-07T19:31:04;1.58;;;0.60;;
58252;SDS011;44050;48.884;8.762;2023-05-07T19:36:06;1.15;;;0.82;;
58252;SDS011;44050;48.884;8.762;2023-05-07T19:41:08;0.95;;;0.73;;
58252;SDS011;44050;48.884;8.762;2023-05-07T19:43:42;1.40;;;0.75;;
58252;SDS011;44050;48.884;8.762;2023-05-07T19:48:46;4.80;;;0.93;;
58252;SDS011;44050;48.884;8.762;2023-05-07T19:53:47;0.57;;;0.57;;
58252;SDS011;44050;48.884;8.762;2023-05-07T19:56:18;1.38;;;1.27;;
58252;SDS011;44050;48.884;8.762;2023-05-07T20:03:51;1.63;;;1.33;;
58252;SDS011;44050;48.884;8.762;2023-05-07T20:08:53;1.57;;;0.70;;
58252;SDS011;44050;48.884;8.762;2023-05-07T20:13:54;0.80;;;0.80;;
58252;SDS011;44050;48.884;8.762;2023-05-07T20:16:25;0.70;;;0.70;;
58252;SDS011;44050;48.884;8.762;2023-05-07T20:21:26;0.70;;;0.63;;
58252;SDS011;44050;48.884;8.762;2023-05-07T20:26:27;3.97;;;1.10;;
58252;SDS011;44050;48.884;8.762;2023-05-07T20:28:58;0.75;;;0.75;;
58252;SDS011;44050;48.884;8.762;2023-05-07T20:31:29;0.75;;;0.75;;
58252;SDS011;44050;48.884;8.762;2023-05-07T20:34:01;1.40;;;0.80;;
58252;SDS011;44050;48.884;8.762;2023-05-07T20:36:32;1.63;;;1.30;;
58252;SDS011;44050;48.884;8.762;2023-05-07T20:41:33;1.13;;;0.90;;
58252;SDS011;44050;48.884;8.762;2023-05-07T20:44:04;1.60;;;1.10;;
58252;SDS011;44050;48.884;8.762;2023-05-07T20:46:35;1.48;;;1.38;;
58252;SDS011;44050;48.884;8.762;2023-05-07T20:49:06;1.05;;;1.05;;
58252;SDS011;44050;48.884;8.762;2023-05-07T20:51:37;1.05;;;1.02;;
58252;SDS011;44050;48.884;8.762;2023-05-07T20:56:40;1.08;;;0.77;;
58252;SDS011;44050;48.884;8.762;2023-05-07T20:59:11;0.80;;;0.80;;
58252;SDS011;44050;48.884;8.762;2023-05-07T21:01:41;0.50;;;0.50;;
58252;SDS011;44050;48.884;8.762;2023-05-07T21:04:12;1.90;;;1.20;;
58252;SDS011;44050;48.884;8.762;2023-05-07T21:09:14;1.10;;;1.07;;
58252;SDS011;44050;48.884;8.762;2023-05-07T21:11:44;1.92;;;1.00;;
58252;SDS011;44050;48.884;8.762;2023-05-07T21:16:46;0.80;;;0.77;;
58252;SDS011;44050;48.884;8.762;2023-05-07T21:21:47;1.90;;;1.53;;
58252;SDS011;44050;48.884;8.762;2023-05-07T21:24:18;1.33;;;1.23;;
58252;SDS011;44050;48.884;8.762;2023-05-07T21:29:19;0.77;;;0.77;;
58252;SDS011;44050;48.884;8.762;2023-05-07T21:31:51;1.00;;;1.00;;
58252;SDS011;44050;48.884;8.762;2023-05-07T21:34:22;3.25;;;1.20;;
58252;SDS011;44050;48.884;8.762;2023-05-07T21:36:53;1.60;;;1.50;;
58252;SDS011;44050;48.884;8.762;2023-05-07T21:39:23;2.60;;;1.05;;
58252;SDS011;44050;48.884;8.762;2023-05-07T21:46:56;4.37;;;2.20;;
58252;SDS011;44050;48.884;8.762;2023-05-07T21:51:57;2.63;;;1.63;;
58252;SDS011;44050;48.884;8.762;2023-05-07T21:54:28;2.97;;;1.70;;
58252;SDS011;44050;48.884;8.762;2023-05-07T21:56:59;2.13;;;1.58;;
58252;SDS011;44050;48.884;8.762;2023-05-07T21:59:30;3.72;;;1.95;;
58252;SDS011;44050;48.884;8.762;2023-05-07T22:04:31;1.07;;;0.97;;
58252;SDS011;44050;48.884;8.762;2023-05-07T22:07:02;1.70;;;1.08;;
58252;SDS011;44050;48.884;8.762;2023-05-07T22:09:33;2.05;;;1.70;;
58252;SDS011;44050;48.884;8.762;2023-05-07T22:12:03;2.30;;;1.90;;
58252;SDS011;44050;48.884;8.762;2023-05-07T22:17:05;1.13;;;1.00;;
58252;SDS011;44050;48.884;8.762;2023-05-07T22:22:06;1.30;;;1.20;;
58252;SDS011;44050;48.884;8.762;2023-05-07T22:27:07;2.67;;;1.13;;
58252;SDS011;44050;48.884;8.762;2023-05-07T22:29:38;1.98;;;1.10;;
58252;SDS011;44050;48.884;8.762;2023-05-07T22:34:39;2.83;;;2.63;;
58252;SDS011;44050;48.884;8.762;2023-05-07T22:37:10;3.15;;;2.85;;
58252;SDS011;44050;48.884;8.762;2023-05-07T22:42:12;1.58;;;1.45;;
58252;SDS011;44050;48.884;8.762;2023-05-07T22:44:43;3.17;;;2.97;;
58252;SDS011;44050;48.884;8.762;2023-05-07T22:47:13;4.72;;;4.32;;
58252;SDS011;44050;48.884;8.762;2023-05-07T22:52:15;3.40;;;3.10;;
58252;SDS011;44050;48.884;8.762;2023-05-07T22:57:16;5.15;;;3.25;;
58252;SDS011;44050;48.884;8.762;2023-05-07T23:02:18;2.47;;;1.90;;
58252;SDS011;44050;48.884;8.762;2023-05-07T23:04:48;2.30;;;2.20;;
58252;SDS011;44050;48.884;8.762;2023-05-07T23:09:50;2.10;;;2.00;;
58252;SDS011;44050;48.884;8.762;2023-05-07T23:12:21;3.95;;;3.03;;
58252;SDS011;44050;48.884;8.762;2023-05-07T23:14:51;2.95;;;2.30;;
58252;SDS011;44050;48.884;8.762;2023-05-07T23:17:22;2.53;;;2.33;;
58252;SDS011;44050;48.884;8.762;2023-05-07T23:19:53;2.00;;;1.90;;
58252;SDS011;44050;48.884;8.762;2023-05-07T23:22:24;2.50;;;1.92;;
58252;SDS011;44050;48.884;8.762;2023-05-07T23:24:54;2.88;;;2.65;;
58252;SDS011;44050;48.884;8.762;2023-05-07T23:29:56;2.80;;;2.60;;
58252;SDS011;44050;48.884;8.762;2023-05-07T23:32:26;3.92;;;3.55;;
58252;SDS011;44050;48.884;8.762;2023-05-07T23:34:57;3.55;;;3.25;;
58252;SDS011;44050;48.884;8.762;2023-05-07T23:37:28;3.00;;;2.70;;
58252;SDS011;44050;48.884;8.762;2023-05-07T23:42:29;4.30;;;2.50;;
58252;SDS011;44050;48.884;8.762;2023-05-07T23:47:30;2.10;;;1.97;;
58252;SDS011;44050;48.884;8.762;2023-05-07T23:50:01;5.13;;;2.40;;
58252;SDS011;44050;48.884;8.762;2023-05-07T23:55:03;1.67;;;1.30;;
